createdAt,value
2023-05-18T00:02:31.625Z,11.5
2023-05-18T00:08:10.244Z,11.5
2023-05-18T00:13:30.905Z,11.4
2023-05-18T00:18:53.493Z,11.4
2023-05-18T00:24:14.423Z,11.4
2023-05-18T00:29:34.674Z,11.3
2023-05-18T00:35:12.125Z,11.2
2023-05-18T00:40:48.986Z,11.2
2023-05-18T00:46:40.792Z,11.1
2023-05-18T00:52:32.742Z,11.1
2023-05-18T00:58:08.704Z,11.1
2023-05-18T01:04:01.049Z,11.1
2023-05-18T01:09:21.813Z,11.1
2023-05-18T01:15:13.597Z,11.1
2023-05-18T01:21:04.751Z,11
2023-05-18T01:26:56.878Z,11.1
2023-05-18T01:32:32.560Z,11.1
2023-05-18T01:38:09.281Z,11.1
2023-05-18T01:44:03.352Z,11.1
2023-05-18T01:49:40.489Z,11.1
2023-05-18T01:55:16.678Z,10.9
2023-05-18T02:00:53.164Z,11
2023-05-18T02:06:46.908Z,11
2023-05-18T02:12:21.964Z,11
2023-05-18T02:18:14.178Z,11
2023-05-18T02:24:08.273Z,11
2023-05-18T02:35:37.784Z,11.1
2023-05-18T02:41:14.620Z,11.1
2023-05-18T02:47:05.948Z,11.1
2023-05-18T02:52:42.700Z,11.1
2023-05-18T02:58:34.271Z,11.1
2023-05-18T03:04:28.350Z,11.1
2023-05-18T03:10:21.422Z,11.2
2023-05-18T03:16:12.562Z,11.2
2023-05-18T03:21:35.246Z,11.2
2023-05-18T03:27:12.042Z,11.3
2023-05-18T03:32:48.432Z,11.3
2023-05-18T03:38:40.095Z,11.3
2023-05-18T03:44:32.608Z,11.3
2023-05-18T03:50:08.680Z,11.4
2023-05-18T03:56:00.863Z,11.4
2023-05-18T04:01:53.427Z,11.4
2023-05-18T04:07:48.213Z,11.5
2023-05-18T04:13:39.357Z,11.5
2023-05-18T04:19:32.655Z,11.4
2023-05-18T04:25:24.404Z,11.6
2023-05-18T04:31:15.879Z,11.5
2023-05-18T04:37:09.161Z,11.6
2023-05-18T04:42:45.160Z,11.7
2023-05-18T04:48:37.481Z,11.6
2023-05-18T04:54:29.790Z,11.7
2023-05-18T05:00:05.511Z,11.7
2023-05-18T05:06:00.561Z,11.8
2023-05-18T05:11:52.997Z,11.8
2023-05-18T05:17:44.572Z,11.9
2023-05-18T05:23:36.717Z,11.9
2023-05-18T05:29:29.614Z,11.9
2023-05-18T05:35:06.216Z,11.9
2023-05-18T05:40:58.128Z,11.9
2023-05-18T05:46:52.415Z,11.9
2023-05-18T05:52:44.000Z,11.8
2023-05-18T05:58:35.533Z,11.8
2023-05-18T06:04:28.581Z,11.9
2023-05-18T06:10:20.550Z,12
2023-05-18T06:16:14.431Z,12.1
2023-05-18T06:22:10.554Z,12.3
2023-05-18T06:28:01.529Z,12.6
2023-05-18T06:33:54.206Z,12.8
2023-05-18T06:39:32.085Z,13.2
2023-05-18T06:45:23.261Z,13.6
2023-05-18T06:51:00.032Z,13.9
2023-05-18T06:56:36.638Z,14.1
2023-05-18T07:02:28.127Z,14
2023-05-18T07:08:21.099Z,13.9
2023-05-18T07:13:41.956Z,13.8
2023-05-18T07:19:33.654Z,13.5
2023-05-18T07:25:27.672Z,13.3
2023-05-18T07:31:04.788Z,13.2
2023-05-18T07:36:56.779Z,13.3
2023-05-18T07:42:33.245Z,13.3
2023-05-18T07:48:26.440Z,13.4
2023-05-18T07:54:02.886Z,13.5
2023-05-18T07:59:38.392Z,13.6
2023-05-18T08:05:16.028Z,13.6
2023-05-18T08:10:52.032Z,13.7
2023-05-18T08:17:00.821Z,13.7
2023-05-18T08:22:37.852Z,13.6
2023-05-18T08:28:14.862Z,13.5
2023-05-18T08:33:52.183Z,13.5
2023-05-18T08:39:29.447Z,13.5
2023-05-18T08:45:05.613Z,13.6
2023-05-18T08:50:45.432Z,13.7
2023-05-18T08:56:22.315Z,13.6
2023-05-18T09:01:58.362Z,13.4
2023-05-18T09:07:35.596Z,13.4
2023-05-18T09:13:14.381Z,13.6
2023-05-18T09:18:50.587Z,13.6
2023-05-18T09:24:27.138Z,13.5
2023-05-18T09:30:06.485Z,13.6
2023-05-18T09:35:43.289Z,13.5
2023-05-18T09:41:20.089Z,13.5
2023-05-18T09:46:41.228Z,13.5
2023-05-18T09:52:02.411Z,13.4
2023-05-18T09:57:52.444Z,13.5
2023-05-18T10:03:16.821Z,13.6
2023-05-18T10:08:38.621Z,13.8
2023-05-18T10:13:59.714Z,13.7
2023-05-18T10:19:17.174Z,13.9
2023-05-18T10:24:25.480Z,14
2023-05-18T10:30:03.148Z,14.2
2023-05-18T10:36:00.733Z,14
2023-05-18T10:41:37.151Z,13.9
2023-05-18T10:46:29.768Z,13.9
2023-05-18T10:51:52.129Z,13.8
2023-05-18T10:58:11.490Z,13.7
2023-05-18T11:03:32.682Z,13.7
2023-05-18T11:09:09.222Z,13.7
2023-05-18T11:14:29.985Z,13.6
2023-05-18T11:20:06.609Z,13.3
2023-05-18T11:25:58.733Z,13.4
2023-05-18T11:31:43.742Z,13.4
2023-05-18T11:37:31.991Z,13.5
2023-05-18T11:43:24.488Z,13.4
2023-05-18T11:48:44.974Z,13.3
2023-05-18T11:54:24.006Z,12.7
2023-05-18T11:59:48.260Z,12.1
2023-05-18T12:05:32.411Z,11.8
2023-05-18T12:11:08.833Z,11.9
2023-05-18T12:16:31.687Z,11.9
2023-05-18T12:22:07.155Z,12.2
2023-05-18T12:27:42.848Z,12.3
2023-05-18T12:33:20.290Z,12.3
2023-05-18T12:38:52.408Z,12.3
2023-05-18T12:44:31.056Z,12.2
2023-05-18T12:50:26.295Z,12.4
2023-05-18T12:56:19.009Z,12.5
2023-05-18T13:01:55.719Z,12.4
2023-05-18T13:07:33.133Z,12.6
2023-05-18T13:13:51.412Z,12.7
2023-05-18T13:19:44.275Z,12.7
2023-05-18T13:25:23.428Z,12.8
2023-05-18T13:36:37.953Z,12.9
2023-05-18T13:42:15.750Z,13.1
2023-05-18T13:47:37.067Z,13.1
2023-05-18T13:53:14.257Z,12.9
2023-05-18T13:59:08.166Z,12.8
2023-05-18T14:05:00.319Z,12.9
2023-05-18T14:10:22.724Z,13
2023-05-18T14:16:14.618Z,12.9
2023-05-18T14:22:06.308Z,12.8
2023-05-18T14:27:57.682Z,12.9
2023-05-18T14:33:49.923Z,12.9
2023-05-18T14:45:18.204Z,12.9
2023-05-18T14:51:29.144Z,12.9
2023-05-18T14:57:19.510Z,13
2023-05-18T15:03:10.761Z,12.9
2023-05-18T15:09:04.223Z,12.8
2023-05-18T15:14:39.678Z,12.9
2023-05-18T15:20:31.726Z,12.9
2023-05-18T15:26:25.538Z,12.9
2023-05-18T15:32:16.707Z,12.8
2023-05-18T15:38:08.142Z,12.6
2023-05-18T15:44:00.223Z,12.5
2023-05-18T15:49:51.367Z,12.5
2023-05-18T15:55:27.557Z,12.6
2023-05-18T16:01:19.553Z,12.6
2023-05-18T16:06:56.437Z,12.6
2023-05-18T16:12:48.180Z,12.6
2023-05-18T16:18:27.825Z,12.7
2023-05-18T16:24:18.779Z,12.7
2023-05-18T16:29:40.159Z,12.6
2023-05-18T16:35:32.994Z,12.4
2023-05-18T16:41:25.068Z,12.4
2023-05-18T16:47:17.280Z,12.4
2023-05-18T16:53:12.427Z,12.3
2023-05-18T16:59:03.213Z,12.3
2023-05-18T17:05:11.824Z,12.3
2023-05-18T17:11:06.772Z,12.2
2023-05-18T17:16:43.402Z,12.1
2023-05-18T17:22:19.506Z,12.1
2023-05-18T17:28:23.053Z,12.1
2023-05-18T17:34:01.827Z,11.9
2023-05-18T17:39:53.190Z,11.9
2023-05-18T17:45:45.934Z,11.9
2023-05-18T17:51:37.999Z,11.8
2023-05-18T17:57:28.526Z,11.8
2023-05-18T18:03:05.941Z,11.7
2023-05-18T18:08:43.510Z,11.6
2023-05-18T18:14:35.498Z,11.6
2023-05-18T18:20:28.630Z,11.7
2023-05-18T18:26:04.861Z,11.7
2023-05-18T18:31:41.133Z,11.7
2023-05-18T18:37:02.597Z,11.6
2023-05-18T18:42:54.506Z,11.6
2023-05-18T18:48:46.508Z,11.6
2023-05-18T18:54:38.692Z,11.5
2023-05-18T19:00:29.185Z,11.4
2023-05-18T19:06:06.140Z,11.1
2023-05-18T19:11:43.140Z,11
2023-05-18T19:17:35.271Z,11
2023-05-18T19:23:27.856Z,10.8
2023-05-18T19:29:20.064Z,10.8
2023-05-18T19:35:12.934Z,10.8
2023-05-18T19:40:49.361Z,10.8
2023-05-18T19:46:44.897Z,10.8
2023-05-18T19:52:36.565Z,10.8
2023-05-18T19:58:27.191Z,10.8
2023-05-18T20:04:20.453Z,10.7
2023-05-18T20:09:56.438Z,10.8
2023-05-18T20:15:48.658Z,10.8
2023-05-18T20:21:41.564Z,10.7
2023-05-18T20:27:04.913Z,10.8
2023-05-18T20:32:25.669Z,10.7
2023-05-18T20:38:18.197Z,10.8
2023-05-18T20:43:38.715Z,10.8
2023-05-18T20:49:30.973Z,10.8
2023-05-18T20:55:23.233Z,10.8
2023-05-18T21:01:14.667Z,10.7
2023-05-18T21:06:54.943Z,10.8
2023-05-18T21:12:31.852Z,10.9
2023-05-18T21:18:07.921Z,10.9
2023-05-18T21:23:59.712Z,10.8
2023-05-18T21:29:51.835Z,10.8
2023-05-18T21:35:44.366Z,10.8
2023-05-18T21:41:36.015Z,10.8
2023-05-18T21:46:59.801Z,10.7
2023-05-18T21:52:36.295Z,10.6
2023-05-18T21:58:13.318Z,10.6
2023-05-18T22:03:50.071Z,10.6
2023-05-18T22:09:41.514Z,10.6
2023-05-18T22:15:17.202Z,10.5
2023-05-18T22:20:38.625Z,10.4
2023-05-18T22:26:41.576Z,10.3
2023-05-18T22:37:54.184Z,10.3
2023-05-18T22:43:14.293Z,10.4
2023-05-18T22:49:06.086Z,10.3
2023-05-18T22:54:42.861Z,10.3
2023-05-18T23:00:18.588Z,10.3
2023-05-18T23:05:55.003Z,10.3
2023-05-18T23:11:46.706Z,10.3
2023-05-18T23:17:38.118Z,10.4
2023-05-18T23:23:30.225Z,10.4
2023-05-18T23:29:22.200Z,10.4
2023-05-18T23:35:14.424Z,10.4
2023-05-18T23:41:06.502Z,10.4
2023-05-18T23:46:58.730Z,10.4
2023-05-18T23:52:50.379Z,10.4
2023-05-18T23:58:42.190Z,10.4
